createdAt,value
2019-02-07T00:00:56.588Z,492.90
2019-02-07T00:03:25.130Z,515.23
2019-02-07T00:05:53.796Z,521.13
2019-02-07T00:08:22.714Z,495.60
2019-02-07T00:10:51.307Z,488.03
2019-02-07T00:13:20.100Z,520.03
2019-02-07T00:15:48.655Z,470.03
2019-02-07T00:18:17.266Z,429.27
2019-02-07T00:20:46.031Z,479.63
2019-02-07T00:23:15.270Z,371.97
2019-02-07T00:25:43.809Z,497.13
2019-02-07T00:28:12.406Z,562.93
2019-02-07T00:30:41.268Z,402.10
2019-02-07T00:33:09.827Z,466.53
2019-02-07T00:35:38.359Z,405.90
2019-02-07T00:38:06.976Z,461.17
2019-02-07T00:40:35.754Z,482.60
2019-02-07T00:43:04.435Z,439.13
2019-02-07T00:45:32.901Z,373.07
2019-02-07T00:48:01.528Z,310.70
2019-02-07T00:50:31.153Z,353.13
2019-02-07T00:52:59.990Z,419.20
2019-02-07T00:55:28.575Z,410.60
2019-02-07T00:57:57.116Z,408.60
2019-02-07T01:00:26.999Z,422.77
2019-02-07T01:02:55.851Z,418.20
2019-02-07T01:05:24.647Z,527.90
2019-02-07T01:07:53.448Z,480.20
2019-02-07T01:10:27.294Z,400.90
2019-02-07T01:12:57.229Z,537.93
2019-02-07T01:15:27.482Z,442.43
2019-02-07T01:17:56.151Z,710.03
2019-02-07T01:20:24.672Z,369.53
2019-02-07T01:22:53.771Z,380.40
2019-02-07T01:25:23.362Z,541.00
2019-02-07T01:27:52.198Z,580.93
2019-02-07T01:30:25.423Z,486.73
2019-02-07T01:32:54.106Z,358.97
2019-02-07T01:35:22.704Z,457.20
2019-02-07T01:37:51.845Z,425.90
2019-02-07T01:40:21.401Z,182.83
2019-02-07T01:42:50.092Z,299.87
2019-02-07T01:45:21.256Z,264.97
2019-02-07T01:47:50.627Z,280.90
2019-02-07T01:50:22.227Z,166.23
2019-02-07T01:52:51.389Z,157.07
2019-02-07T01:55:20.522Z,169.37
2019-02-07T01:57:49.215Z,133.73
2019-02-07T02:00:19.166Z,135.87
2019-02-07T02:02:47.831Z,179.77
2019-02-07T02:05:18.031Z,145.07
2019-02-07T02:07:47.340Z,178.10
2019-02-07T02:10:21.167Z,93.83
2019-02-07T02:12:50.144Z,96.33
2019-02-07T02:15:24.739Z,124.77
2019-02-07T02:17:51.160Z,127.00
2019-02-07T02:20:22.193Z,119.00
2019-02-07T02:22:51.227Z,90.03
2019-02-07T02:25:20.306Z,92.67
2019-02-07T02:27:49.083Z,92.83
2019-02-07T02:30:20.678Z,115.90
2019-02-07T02:32:49.315Z,103.50
2019-02-07T02:35:18.366Z,102.23
2019-02-07T02:37:47.000Z,48.37
2019-02-07T02:40:15.803Z,55.93
2019-02-07T02:42:44.472Z,66.37
2019-02-07T02:45:18.844Z,55.20
2019-02-07T02:47:47.653Z,63.27
2019-02-07T02:50:18.504Z,75.70
2019-02-07T02:52:47.268Z,78.23
2019-02-07T02:55:32.472Z,71.10
2019-02-07T02:58:02.598Z,99.27
2019-02-07T03:00:35.690Z,92.00
2019-02-07T03:03:24.829Z,90.00
2019-02-07T03:05:57.900Z,93.17
2019-02-07T03:08:28.175Z,127.60
2019-02-07T03:10:58.653Z,124.97
2019-02-07T03:16:37.283Z,111.37
2019-02-07T03:19:24.003Z,104.97
2019-02-07T03:22:10.773Z,102.33
2019-02-07T03:24:41.047Z,87.33
2019-02-07T03:27:29.450Z,92.17
2019-02-07T03:29:59.662Z,81.83
2019-02-07T03:32:45.905Z,78.03
2019-02-07T03:35:18.911Z,70.93
2019-02-07T03:37:54.876Z,78.73
2019-02-07T03:40:25.183Z,86.43
2019-02-07T03:43:10.684Z,86.57
2019-02-07T03:45:43.864Z,107.07
2019-02-07T03:48:16.802Z,125.33
2019-02-07T03:50:49.798Z,177.57
2019-02-07T03:53:35.270Z,156.17
2019-02-07T03:56:10.400Z,182.47
2019-02-07T04:02:04.246Z,187.40
2019-02-07T04:04:49.416Z,170.33
2019-02-07T04:07:28.304Z,200.53
2019-02-07T04:10:00.990Z,243.80
2019-02-07T04:12:31.091Z,201.03
2019-02-07T04:15:04.028Z,178.77
2019-02-07T04:17:49.491Z,193.03
2019-02-07T04:20:23.083Z,212.50
2019-02-07T04:22:59.052Z,176.27
2019-02-07T04:25:34.987Z,241.87
2019-02-07T04:28:07.961Z,268.80
2019-02-07T04:30:56.398Z,183.00
2019-02-07T04:33:28.997Z,191.67
2019-02-07T04:36:15.728Z,262.00
2019-02-07T04:39:02.095Z,210.87
2019-02-07T04:41:48.361Z,215.63
2019-02-07T04:44:27.522Z,178.33
2019-02-07T04:47:09.719Z,172.80
2019-02-07T04:49:49.279Z,381.10
2019-02-07T04:52:34.714Z,215.13
2019-02-07T04:55:17.233Z,256.47
2019-02-07T04:57:47.495Z,143.77
2019-02-07T05:00:18.867Z,170.80
2019-02-07T05:02:49.029Z,186.50
2019-02-07T05:05:22.165Z,209.00
2019-02-07T05:07:58.522Z,171.93
2019-02-07T05:10:40.608Z,174.50
2019-02-07T05:13:19.293Z,225.50
2019-02-07T05:15:52.243Z,316.17
2019-02-07T05:18:38.776Z,571.50
2019-02-07T05:21:17.907Z,619.97
2019-02-07T05:24:04.503Z,164.23
2019-02-07T05:26:37.153Z,267.07
2019-02-07T05:29:07.540Z,413.20
2019-02-07T05:31:40.195Z,287.53
2019-02-07T05:34:26.923Z,509.17
2019-02-07T05:36:57.089Z,190.83
2019-02-07T05:39:43.684Z,218.03
2019-02-07T05:42:16.816Z,484.50
2019-02-07T05:44:47.470Z,246.33
2019-02-07T05:47:17.657Z,578.07
2019-02-07T05:49:47.756Z,172.07
2019-02-07T05:52:20.947Z,302.00
2019-02-07T05:55:07.543Z,433.87
2019-02-07T05:57:53.249Z,225.50
2019-02-07T06:00:26.524Z,264.70
2019-02-07T06:02:56.709Z,406.97
2019-02-07T06:05:37.499Z,374.53
2019-02-07T06:08:13.835Z,241.70
2019-02-07T06:11:00.385Z,300.43
2019-02-07T06:13:39.649Z,258.93
2019-02-07T06:16:09.893Z,341.07
2019-02-07T06:18:56.355Z,332.77
2019-02-07T06:21:29.495Z,228.87
2019-02-07T06:24:11.511Z,165.40
2019-02-07T06:26:50.457Z,171.37
2019-02-07T06:29:23.260Z,144.17
2019-02-07T06:31:53.745Z,196.00
2019-02-07T06:34:40.686Z,149.13
2019-02-07T06:37:17.073Z,175.47
2019-02-07T06:39:50.022Z,216.37
2019-02-07T06:42:23.147Z,146.63
2019-02-07T06:44:53.324Z,112.17
2019-02-07T06:47:23.586Z,129.33
2019-02-07T06:50:02.654Z,129.73
2019-02-07T06:52:42.353Z,116.80
2019-02-07T06:55:18.665Z,184.27
2019-02-07T06:58:00.583Z,141.50
2019-02-07T07:00:36.315Z,82.03
2019-02-07T07:03:09.534Z,67.90
2019-02-07T07:05:42.349Z,67.80
2019-02-07T07:08:18.620Z,49.77
2019-02-07T07:10:51.628Z,46.10
2019-02-07T07:13:21.824Z,60.50
2019-02-07T07:16:10.203Z,57.40
2019-02-07T07:18:56.721Z,51.13
2019-02-07T07:21:37.428Z,49.60
2019-02-07T07:24:24.060Z,56.43
2019-02-07T07:27:00.705Z,45.00
2019-02-07T07:29:36.732Z,45.13
2019-02-07T07:32:22.665Z,39.23
2019-02-07T07:34:53.127Z,25.00
2019-02-07T07:37:25.795Z,29.50
2019-02-07T07:39:55.897Z,32.20
2019-02-07T07:42:42.632Z,27.73
2019-02-07T07:45:16.415Z,25.63
2019-02-07T07:47:49.644Z,30.33
2019-02-07T07:50:22.420Z,28.60
2019-02-07T07:53:07.687Z,23.73
2019-02-07T07:55:52.683Z,24.37
2019-02-07T07:58:29.134Z,26.97
2019-02-07T08:01:04.975Z,26.37
2019-02-07T08:03:35.686Z,34.27
2019-02-07T08:06:06.484Z,27.07
2019-02-07T08:08:45.781Z,22.87
2019-02-07T08:11:27.764Z,24.77
2019-02-07T08:13:58.536Z,24.63
2019-02-07T08:16:34.372Z,22.67
2019-02-07T08:19:21.089Z,25.67
2019-02-07T08:21:53.884Z,19.20
2019-02-07T08:24:27.007Z,22.17
2019-02-07T08:27:13.169Z,19.30
2019-02-07T08:29:45.977Z,21.93
2019-02-07T08:32:19.076Z,22.73
2019-02-07T08:35:05.483Z,25.57
2019-02-07T08:38:06.824Z,20.67
2019-02-07T08:40:40.193Z,19.83
2019-02-07T08:43:22.283Z,21.27
2019-02-07T08:46:07.335Z,23.03
2019-02-07T08:48:53.681Z,25.37
2019-02-07T08:51:23.875Z,28.60
2019-02-07T08:54:03.029Z,25.07
2019-02-07T08:56:41.802Z,29.67
2019-02-07T08:59:18.002Z,33.37
2019-02-07T09:01:51.044Z,32.37
2019-02-07T09:04:26.816Z,34.47
2019-02-07T09:07:13.225Z,33.13
2019-02-07T09:09:43.350Z,35.07
2019-02-07T09:12:16.142Z,37.27
2019-02-07T09:14:55.402Z,39.97
2019-02-07T09:17:25.572Z,46.83
2019-02-07T09:19:58.124Z,48.77
2019-02-07T09:22:30.869Z,50.77
2019-02-07T09:25:23.902Z,55.10
2019-02-07T09:28:12.203Z,56.67
2019-02-07T09:31:00.743Z,63.63
2019-02-07T09:33:46.689Z,68.97
2019-02-07T09:36:26.296Z,70.03
2019-02-07T09:39:11.573Z,63.23
2019-02-07T09:41:42.063Z,68.30
2019-02-07T09:44:14.863Z,71.60
2019-02-07T09:49:37.072Z,61.43
2019-02-07T09:52:16.536Z,69.57
2019-02-07T09:54:49.464Z,68.53
2019-02-07T09:57:22.248Z,71.90
2019-02-07T10:00:04.486Z,76.13
2019-02-07T10:02:46.549Z,70.60
2019-02-07T10:05:17.232Z,68.97
2019-02-07T10:07:53.077Z,72.63
2019-02-07T10:10:38.468Z,68.23
2019-02-07T10:13:24.740Z,65.43
2019-02-07T10:16:10.300Z,67.47
2019-02-07T10:18:56.659Z,67.50
2019-02-07T10:21:32.680Z,70.10
2019-02-07T10:24:08.597Z,66.60
2019-02-07T10:26:41.753Z,67.97
2019-02-07T10:29:11.857Z,69.83
2019-02-07T10:31:45.075Z,62.23
2019-02-07T10:34:31.185Z,59.03
2019-02-07T10:37:14.079Z,61.23
2019-02-07T10:39:47.777Z,63.03
2019-02-07T10:42:34.291Z,65.97
2019-02-07T10:48:00.283Z,55.37
2019-02-07T10:50:46.881Z,55.23
2019-02-07T10:53:26.031Z,52.67
2019-02-07T10:55:58.783Z,56.73
2019-02-07T10:58:44.044Z,52.10
2019-02-07T11:01:17.751Z,50.73
2019-02-07T11:03:54.496Z,49.40
2019-02-07T11:06:24.591Z,46.07
2019-02-07T11:09:09.780Z,52.40
2019-02-07T11:11:45.928Z,48.70
2019-02-07T11:14:29.403Z,53.57
2019-02-07T11:17:14.412Z,42.40
2019-02-07T11:19:44.699Z,50.23
2019-02-07T11:22:23.821Z,39.13
2019-02-07T11:25:10.371Z,37.77
2019-02-07T11:27:52.515Z,34.50
2019-02-07T11:30:34.745Z,35.70
2019-02-07T11:33:04.915Z,39.00
2019-02-07T11:35:51.336Z,38.53
2019-02-07T11:38:39.801Z,37.70
2019-02-07T11:41:15.852Z,38.00
2019-02-07T11:43:54.647Z,34.63
2019-02-07T11:46:37.294Z,30.80
2019-02-07T11:49:07.162Z,31.60
2019-02-07T11:51:54.020Z,30.67
2019-02-07T11:54:32.917Z,32.03
2019-02-07T11:57:03.151Z,30.73
2019-02-07T11:59:49.832Z,29.93
2019-02-07T12:02:25.861Z,34.20
2019-02-07T12:05:17.141Z,32.90
2019-02-07T12:08:02.443Z,33.37
2019-02-07T12:10:38.351Z,32.70
2019-02-07T12:13:14.653Z,25.63
2019-02-07T12:15:50.661Z,29.17
2019-02-07T12:18:38.044Z,28.50
2019-02-07T12:21:13.963Z,25.63
2019-02-07T12:23:53.123Z,29.00
2019-02-07T12:26:23.564Z,27.00
2019-02-07T12:28:53.658Z,23.17
2019-02-07T12:31:40.143Z,24.23
2019-02-07T12:34:11.904Z,24.90
2019-02-07T12:36:45.067Z,23.37
2019-02-07T12:39:15.332Z,27.63
2019-02-07T12:41:48.189Z,29.50
2019-02-07T12:44:30.285Z,24.83
2019-02-07T12:47:17.059Z,26.10
2019-02-07T12:50:03.625Z,27.17
2019-02-07T12:52:39.652Z,28.43
2019-02-07T12:55:23.195Z,28.40
2019-02-07T12:57:55.007Z,23.80
2019-02-07T13:00:28.097Z,27.20
2019-02-07T13:03:03.781Z,25.90
2019-02-07T13:05:48.891Z,25.77
2019-02-07T13:08:18.995Z,29.07
2019-02-07T13:10:49.226Z,34.57
2019-02-07T13:13:28.438Z,33.13
2019-02-07T13:16:07.176Z,32.87
2019-02-07T13:18:38.479Z,26.30
2019-02-07T13:21:14.373Z,33.23
2019-02-07T13:23:47.501Z,32.07
2019-02-07T13:26:17.632Z,31.20
2019-02-07T13:28:56.664Z,32.87
2019-02-07T13:31:26.781Z,25.63
2019-02-07T13:34:06.378Z,29.13
2019-02-07T13:36:36.517Z,28.97
2019-02-07T13:39:17.723Z,31.43
2019-02-07T13:41:47.934Z,29.83
2019-02-07T13:44:33.668Z,27.33
2019-02-07T13:47:09.987Z,29.87
2019-02-07T13:49:52.133Z,28.27
2019-02-07T13:52:24.016Z,30.77
2019-02-07T13:54:57.155Z,27.63
2019-02-07T13:57:33.400Z,31.17
2019-02-07T14:00:03.570Z,26.20
2019-02-07T14:02:36.889Z,26.40
2019-02-07T14:05:12.489Z,29.67
2019-02-07T14:07:48.561Z,27.83
2019-02-07T14:10:25.001Z,26.43
2019-02-07T14:13:11.730Z,29.47
2019-02-07T14:15:42.044Z,28.17
2019-02-07T14:18:18.324Z,26.80
2019-02-07T14:21:04.940Z,25.23
2019-02-07T14:23:49.972Z,21.93
2019-02-07T14:26:32.119Z,21.83
2019-02-07T14:29:08.852Z,25.70
2019-02-07T14:31:39.020Z,24.33
2019-02-07T14:34:25.466Z,24.03
2019-02-07T14:37:13.838Z,27.70
2019-02-07T14:40:00.394Z,24.13
2019-02-07T14:42:33.297Z,21.30
2019-02-07T14:45:09.431Z,28.33
2019-02-07T14:47:37.960Z,25.43
2019-02-07T14:50:14.475Z,26.30
2019-02-07T14:52:38.072Z,29.30
2019-02-07T14:55:09.031Z,25.90
2019-02-07T14:57:37.964Z,30.90
2019-02-07T15:00:09.759Z,26.47
2019-02-07T15:02:38.355Z,29.87
2019-02-07T15:05:08.552Z,28.80
2019-02-07T15:07:37.307Z,29.30
2019-02-07T15:10:26.690Z,25.53
2019-02-07T15:12:55.341Z,30.50
2019-02-07T15:15:23.996Z,27.13
2019-02-07T15:17:52.460Z,29.67
2019-02-07T15:20:26.272Z,30.17
2019-02-07T15:22:51.377Z,29.90
2019-02-07T15:25:20.123Z,35.43
2019-02-07T15:27:48.716Z,33.43
2019-02-07T15:30:21.996Z,29.77
2019-02-07T15:32:50.523Z,30.90
2019-02-07T15:35:31.471Z,32.67
2019-02-07T15:38:00.286Z,34.20
2019-02-07T15:40:28.889Z,30.03
2019-02-07T15:42:58.192Z,34.67
2019-02-07T15:45:26.784Z,37.00
2019-02-07T15:47:55.463Z,39.50
2019-02-07T15:50:37.253Z,37.77
2019-02-07T15:52:58.170Z,42.23
2019-02-07T15:55:26.940Z,40.37
2019-02-07T15:57:55.746Z,41.87
2019-02-07T16:00:43.997Z,40.80
2019-02-07T16:03:17.620Z,43.30
2019-02-07T16:05:46.174Z,40.67
2019-02-07T16:08:14.725Z,35.93
2019-02-07T16:10:43.341Z,39.93
2019-02-07T16:13:12.235Z,40.83
2019-02-07T16:16:00.375Z,38.57
2019-02-07T16:18:28.933Z,38.17
2019-02-07T16:20:57.527Z,36.70
2019-02-07T16:23:26.272Z,38.03
2019-02-07T16:25:54.809Z,43.57
2019-02-07T16:28:23.338Z,34.97
2019-02-07T16:30:52.232Z,36.77
2019-02-07T16:33:20.860Z,36.33
2019-02-07T16:35:50.025Z,34.53
2019-02-07T16:38:18.652Z,36.20
2019-02-07T16:40:47.129Z,37.00
2019-02-07T16:43:15.712Z,37.80
2019-02-07T16:45:44.629Z,31.43
2019-02-07T16:48:13.217Z,35.97
2019-02-07T16:50:42.319Z,32.47
2019-02-07T16:53:10.831Z,35.50
2019-02-07T16:55:39.437Z,33.73
2019-02-07T16:58:08.171Z,36.20
2019-02-07T17:00:37.841Z,35.60
2019-02-07T17:03:07.275Z,35.17
2019-02-07T17:05:37.942Z,38.97
2019-02-07T17:08:06.792Z,37.90
2019-02-07T17:10:40.318Z,38.03
2019-02-07T17:13:28.454Z,36.30
2019-02-07T17:15:57.050Z,36.43
2019-02-07T17:18:25.844Z,32.23
2019-02-07T17:20:54.433Z,31.77
2019-02-07T17:23:22.966Z,36.10
2019-02-07T17:25:51.764Z,40.80
2019-02-07T17:28:20.439Z,38.47
2019-02-07T17:30:49.043Z,38.40
2019-02-07T17:33:17.499Z,44.97
2019-02-07T17:35:46.309Z,44.00
2019-02-07T17:38:14.909Z,45.07
2019-02-07T17:40:43.538Z,40.87
2019-02-07T17:43:12.506Z,45.63
2019-02-07T17:45:41.015Z,43.67
2019-02-07T17:48:09.713Z,41.53
2019-02-07T17:50:41.275Z,44.23
2019-02-07T17:53:11.755Z,45.50
2019-02-07T17:55:40.354Z,44.30
2019-02-07T17:58:10.106Z,40.40
2019-02-07T18:00:52.123Z,45.07
2019-02-07T18:03:20.728Z,46.17
2019-02-07T18:05:49.542Z,48.03
2019-02-07T18:08:19.012Z,45.87
2019-02-07T18:10:48.325Z,45.87
2019-02-07T18:13:16.782Z,47.63
2019-02-07T18:15:45.326Z,51.20
2019-02-07T18:18:13.888Z,52.10
2019-02-07T18:20:42.629Z,48.57
2019-02-07T18:23:11.279Z,48.67
2019-02-07T18:25:39.852Z,53.60
2019-02-07T18:28:08.623Z,47.17
2019-02-07T18:30:37.210Z,50.40
2019-02-07T18:33:14.688Z,46.40
2019-02-07T18:35:43.464Z,52.27
2019-02-07T18:38:12.112Z,51.20
2019-02-07T18:40:40.648Z,47.50
2019-02-07T18:46:14.625Z,56.27
2019-02-07T18:48:43.151Z,48.23
2019-02-07T18:51:11.680Z,43.43
2019-02-07T18:53:40.258Z,42.70
2019-02-07T18:56:08.786Z,43.93
2019-02-07T18:58:37.383Z,49.20
2019-02-07T19:01:06.066Z,41.93
2019-02-07T19:03:34.516Z,50.00
2019-02-07T19:06:03.322Z,45.27
2019-02-07T19:08:31.873Z,46.93
2019-02-07T19:11:00.414Z,45.70
2019-02-07T19:13:29.018Z,47.87
2019-02-07T19:15:59.297Z,47.30
2019-02-07T19:18:28.621Z,44.17
2019-02-07T19:20:57.178Z,44.53
2019-02-07T19:23:25.773Z,48.63
2019-02-07T19:25:54.383Z,45.13
2019-02-07T19:28:23.045Z,43.87
2019-02-07T19:30:51.655Z,42.40
2019-02-07T19:33:22.442Z,49.77
2019-02-07T19:35:50.371Z,45.93
2019-02-07T19:38:19.226Z,40.97
2019-02-07T19:40:47.836Z,40.87
2019-02-07T19:43:16.483Z,47.93
2019-02-07T19:45:45.046Z,43.67
2019-02-07T19:48:13.774Z,43.67
2019-02-07T19:50:42.339Z,44.83
2019-02-07T19:53:10.803Z,40.57
2019-02-07T19:55:39.614Z,45.93
2019-02-07T19:58:08.298Z,45.70
2019-02-07T20:00:39.318Z,40.20
2019-02-07T20:03:07.310Z,40.13
2019-02-07T20:05:35.846Z,42.87
2019-02-07T20:08:04.921Z,45.23
2019-02-07T20:10:33.864Z,40.97
2019-02-07T20:13:02.393Z,42.17
2019-02-07T20:15:33.442Z,36.03
2019-02-07T20:18:02.509Z,35.80
2019-02-07T20:20:31.598Z,35.37
2019-02-07T20:23:00.349Z,38.40
2019-02-07T20:25:29.071Z,37.83
2019-02-07T20:27:58.042Z,33.93
2019-02-07T20:30:37.482Z,34.53
2019-02-07T20:33:07.142Z,35.97
2019-02-07T20:35:35.678Z,33.50
2019-02-07T20:38:05.169Z,38.17
2019-02-07T20:40:33.728Z,35.23
2019-02-07T20:43:02.568Z,34.20
2019-02-07T20:45:31.359Z,30.70
2019-02-07T20:47:59.943Z,35.07
2019-02-07T20:50:29.421Z,34.60
2019-02-07T20:52:58.223Z,33.73
2019-02-07T20:55:27.297Z,33.67
2019-02-07T20:57:56.101Z,34.07
2019-02-07T21:00:27.553Z,35.57
2019-02-07T21:02:56.268Z,31.23
2019-02-07T21:05:25.680Z,29.50
2019-02-07T21:07:54.291Z,30.03
2019-02-07T21:10:25.533Z,28.30
2019-02-07T21:12:54.078Z,28.40
2019-02-07T21:15:23.192Z,26.97
2019-02-07T21:17:51.811Z,29.87
2019-02-07T21:20:25.313Z,27.40
2019-02-07T21:22:54.964Z,27.03
2019-02-07T21:25:35.649Z,31.67
2019-02-07T21:28:05.306Z,29.83
2019-02-07T21:30:34.178Z,24.07
2019-02-07T21:33:02.787Z,29.70
2019-02-07T21:35:34.533Z,25.30
2019-02-07T21:38:03.715Z,26.37
2019-02-07T21:40:32.373Z,23.83
2019-02-07T21:43:01.104Z,24.17
2019-02-07T21:45:30.343Z,24.33
2019-02-07T21:48:00.079Z,24.63
2019-02-07T21:50:34.606Z,29.87
2019-02-07T21:53:03.158Z,26.03
2019-02-07T21:55:36.853Z,27.13
2019-02-07T21:58:07.218Z,26.70
2019-02-07T22:00:46.070Z,25.73
2019-02-07T22:03:15.096Z,26.87
2019-02-07T22:05:43.773Z,22.57
2019-02-07T22:08:12.448Z,25.07
2019-02-07T22:10:41.060Z,22.70
2019-02-07T22:13:10.045Z,21.57
2019-02-07T22:15:38.793Z,20.73
2019-02-07T22:18:07.804Z,19.67
2019-02-07T22:20:36.380Z,20.87
2019-02-07T22:23:05.623Z,20.23
2019-02-07T22:25:34.333Z,21.33
2019-02-07T22:28:05.834Z,20.80
2019-02-07T22:30:36.411Z,24.37
2019-02-07T22:33:06.311Z,22.83
2019-02-07T22:35:34.975Z,19.70
2019-02-07T22:38:03.820Z,24.97
2019-02-07T22:40:32.455Z,21.93
2019-02-07T22:43:01.426Z,22.63
2019-02-07T22:45:30.172Z,17.60
2019-02-07T22:47:58.913Z,16.83
2019-02-07T22:50:31.063Z,18.83
2019-02-07T22:53:01.310Z,18.07
2019-02-07T22:55:30.317Z,16.57
2019-02-07T22:57:58.930Z,14.50
2019-02-07T23:00:37.832Z,15.50
2019-02-07T23:03:16.325Z,15.63
2019-02-07T23:05:44.923Z,15.17
2019-02-07T23:08:13.640Z,14.83
2019-02-07T23:10:42.589Z,13.33
2019-02-07T23:13:11.652Z,15.27
2019-02-07T23:15:40.418Z,13.37
2019-02-07T23:18:09.322Z,17.27
2019-02-07T23:20:38.022Z,14.53
2019-02-07T23:23:09.162Z,13.57
2019-02-07T23:25:38.129Z,16.20
2019-02-07T23:28:07.065Z,14.70
2019-02-07T23:30:35.782Z,10.37
2019-02-07T23:33:05.679Z,10.20
2019-02-07T23:35:34.290Z,11.10
2019-02-07T23:38:02.956Z,12.13
2019-02-07T23:40:31.615Z,11.10
2019-02-07T23:43:00.535Z,11.47
2019-02-07T23:45:29.087Z,14.13
2019-02-07T23:47:57.615Z,11.97
2019-02-07T23:50:26.351Z,11.10
2019-02-07T23:52:54.872Z,9.63
2019-02-07T23:55:23.395Z,8.17
2019-02-07T23:57:52.122Z,9.73
